createdAt,value
2022-09-29T00:01:23.287Z,4.68
2022-09-29T00:03:50.223Z,4.20
2022-09-29T00:06:20.894Z,4.00
2022-09-29T00:08:47.659Z,4.40
2022-09-29T00:11:16.885Z,4.55
2022-09-29T00:13:44.584Z,4.25
2022-09-29T00:16:12.232Z,4.82
2022-09-29T00:18:41.460Z,4.68
2022-09-29T00:21:18.094Z,4.72
2022-09-29T00:23:50.749Z,4.28
2022-09-29T00:26:22.183Z,4.25
2022-09-29T00:28:55.419Z,4.13
2022-09-29T00:31:25.895Z,4.38
2022-09-29T00:33:53.405Z,4.05
2022-09-29T00:36:22.071Z,4.32
2022-09-29T00:38:50.924Z,4.57
2022-09-29T00:41:21.260Z,4.22
2022-09-29T00:43:54.406Z,4.38
2022-09-29T00:46:48.576Z,4.65
2022-09-29T00:49:40.524Z,4.30
2022-09-29T00:52:21.876Z,4.25
2022-09-29T00:55:03.646Z,4.60
2022-09-29T00:57:54.297Z,4.55
2022-09-29T01:00:20.967Z,4.85
2022-09-29T01:02:54.755Z,4.72
2022-09-29T01:05:27.390Z,4.38
2022-09-29T01:07:54.477Z,4.68
2022-09-29T01:10:25.272Z,5.55
2022-09-29T01:12:53.105Z,4.32
2022-09-29T01:15:21.234Z,4.97
2022-09-29T01:17:53.277Z,4.25
2022-09-29T01:20:24.442Z,4.65
2022-09-29T01:23:04.661Z,4.95
2022-09-29T01:25:58.587Z,5.10
2022-09-29T01:28:52.278Z,5.05
2022-09-29T01:31:29.408Z,5.00
2022-09-29T01:34:07.144Z,4.70
2022-09-29T01:37:10.902Z,5.22
2022-09-29T01:39:50.433Z,4.97
2022-09-29T01:42:25.061Z,5.72
2022-09-29T01:45:00.040Z,5.05
2022-09-29T01:47:36.545Z,4.82
2022-09-29T01:50:09.601Z,5.20
2022-09-29T01:52:43.436Z,4.72
2022-09-29T01:55:13.490Z,4.75
2022-09-29T01:57:53.112Z,5.13
2022-09-29T02:00:23.033Z,4.57
2022-09-29T02:03:14.684Z,4.72
2022-09-29T02:05:46.810Z,5.03
2022-09-29T02:08:19.102Z,4.75
2022-09-29T02:13:21.470Z,4.13
2022-09-29T02:15:52.094Z,4.75
2022-09-29T02:18:25.120Z,5.20
2022-09-29T02:20:51.899Z,4.90
2022-09-29T02:23:18.636Z,5.13
2022-09-29T02:25:47.499Z,5.18
2022-09-29T02:28:17.557Z,5.38
2022-09-29T02:30:48.573Z,4.65
2022-09-29T02:33:25.661Z,4.95
2022-09-29T02:36:27.482Z,5.28
2022-09-29T02:38:58.961Z,5.32
2022-09-29T02:41:38.621Z,5.10
2022-09-29T02:44:24.213Z,5.25
2022-09-29T02:47:19.428Z,5.47
2022-09-29T02:50:21.385Z,6.00
2022-09-29T02:53:30.045Z,5.07
2022-09-29T02:56:04.430Z,6.07
2022-09-29T02:58:57.351Z,5.35
2022-09-29T03:01:30.629Z,5.13
2022-09-29T03:03:59.958Z,4.88
2022-09-29T03:06:30.137Z,5.30
2022-09-29T03:08:58.977Z,5.65
2022-09-29T03:11:25.663Z,5.07
2022-09-29T03:13:52.267Z,5.18
2022-09-29T03:16:21.014Z,5.60
2022-09-29T03:18:49.586Z,4.85
2022-09-29T03:21:18.504Z,5.22
2022-09-29T03:23:47.518Z,5.05
2022-09-29T03:26:16.400Z,5.07
2022-09-29T03:28:43.416Z,5.10
2022-09-29T03:31:10.515Z,5.00
2022-09-29T03:33:38.565Z,5.10
2022-09-29T03:36:07.049Z,5.53
2022-09-29T03:38:33.824Z,5.57
2022-09-29T03:41:00.653Z,4.63
2022-09-29T03:43:27.781Z,4.72
2022-09-29T03:45:57.716Z,4.60
2022-09-29T03:48:38.440Z,5.28
2022-09-29T03:51:10.075Z,4.93
2022-09-29T03:53:39.387Z,5.43
2022-09-29T03:56:06.218Z,5.32
2022-09-29T03:58:34.787Z,4.80
2022-09-29T04:01:04.453Z,4.65
2022-09-29T04:03:33.593Z,4.60
2022-09-29T04:06:07.545Z,4.88
2022-09-29T04:08:37.172Z,4.78
2022-09-29T04:11:04.012Z,4.68
2022-09-29T04:13:30.657Z,4.85
2022-09-29T04:16:06.618Z,4.78
2022-09-29T04:18:33.597Z,4.60
2022-09-29T04:21:05.599Z,4.97
2022-09-29T04:23:32.209Z,4.70
2022-09-29T04:26:02.479Z,5.13
2022-09-29T04:28:31.736Z,4.93
2022-09-29T04:31:08.742Z,4.82
2022-09-29T04:33:35.548Z,5.35
2022-09-29T04:36:02.218Z,5.07
2022-09-29T04:38:28.912Z,5.15
2022-09-29T04:40:58.632Z,4.75
2022-09-29T04:43:27.406Z,5.30
2022-09-29T04:46:05.301Z,5.20
2022-09-29T04:48:35.682Z,4.82
2022-09-29T04:51:02.995Z,5.30
2022-09-29T04:53:29.618Z,4.57
2022-09-29T04:55:56.345Z,4.50
2022-09-29T04:58:22.989Z,5.50
2022-09-29T05:00:49.630Z,4.60
2022-09-29T05:03:16.400Z,4.95
2022-09-29T05:05:43.005Z,4.70
2022-09-29T05:08:09.617Z,4.90
2022-09-29T05:10:36.410Z,4.88
2022-09-29T05:13:03.012Z,4.65
2022-09-29T05:15:29.629Z,4.95
2022-09-29T05:17:56.202Z,4.90
2022-09-29T05:20:22.784Z,5.15
2022-09-29T05:22:49.536Z,5.53
2022-09-29T05:25:16.176Z,5.65
2022-09-29T05:27:42.761Z,5.75
2022-09-29T05:30:09.815Z,4.93
2022-09-29T05:32:36.505Z,5.35
2022-09-29T05:35:04.032Z,5.30
2022-09-29T05:37:30.668Z,5.40
2022-09-29T05:39:57.352Z,6.70
2022-09-29T05:42:25.531Z,6.75
2022-09-29T05:44:52.103Z,6.68
2022-09-29T05:47:19.606Z,6.47
2022-09-29T05:49:48.964Z,6.53
2022-09-29T05:52:15.587Z,6.00
2022-09-29T05:54:42.161Z,6.20
2022-09-29T05:57:10.311Z,6.22
2022-09-29T05:59:39.460Z,6.38
2022-09-29T06:02:06.441Z,5.65
2022-09-29T06:04:36.306Z,6.80
2022-09-29T06:07:05.266Z,6.82
2022-09-29T06:09:33.725Z,7.72
2022-09-29T06:12:00.510Z,6.93
2022-09-29T06:14:27.104Z,7.03
2022-09-29T06:16:53.985Z,6.47
2022-09-29T06:19:20.782Z,5.93
2022-09-29T06:21:47.458Z,6.60
2022-09-29T06:24:14.097Z,7.00
2022-09-29T06:26:40.728Z,6.65
2022-09-29T06:29:07.401Z,6.90
2022-09-29T06:31:34.108Z,6.57
2022-09-29T06:34:03.740Z,6.68
2022-09-29T06:36:54.934Z,6.45
2022-09-29T06:39:24.016Z,6.38
2022-09-29T06:41:56.122Z,6.57
2022-09-29T06:44:28.431Z,6.38
2022-09-29T06:46:56.593Z,6.73
2022-09-29T06:49:24.071Z,6.60
2022-09-29T06:51:51.620Z,6.97
2022-09-29T06:54:20.896Z,7.15
2022-09-29T06:56:49.096Z,7.40
2022-09-29T06:59:16.258Z,6.93
2022-09-29T07:01:45.014Z,7.38
2022-09-29T07:04:11.796Z,6.90
2022-09-29T07:06:38.443Z,7.60
2022-09-29T07:09:05.086Z,7.75
2022-09-29T07:11:31.740Z,7.22
2022-09-29T07:13:58.326Z,9.35
2022-09-29T07:16:25.064Z,8.80
2022-09-29T07:18:52.138Z,10.00
2022-09-29T07:21:19.500Z,9.38
2022-09-29T07:23:46.943Z,10.32
2022-09-29T07:26:16.282Z,9.40
2022-09-29T07:28:43.563Z,10.48
2022-09-29T07:31:15.624Z,9.85
2022-09-29T07:33:47.836Z,10.15
2022-09-29T07:36:16.043Z,10.38
2022-09-29T07:38:45.561Z,10.70
2022-09-29T07:41:13.109Z,10.60
2022-09-29T07:43:40.213Z,11.57
2022-09-29T07:46:07.893Z,10.85
2022-09-29T07:48:36.190Z,10.63
2022-09-29T07:51:15.087Z,10.10
2022-09-29T07:53:42.407Z,10.15
2022-09-29T07:56:15.240Z,10.57
2022-09-29T07:58:42.272Z,10.02
2022-09-29T08:01:12.581Z,9.55
2022-09-29T08:03:50.577Z,10.57
2022-09-29T08:06:20.005Z,9.23
2022-09-29T08:09:00.915Z,7.95
2022-09-29T08:11:32.172Z,8.32
2022-09-29T08:14:00.094Z,8.85
2022-09-29T08:16:27.185Z,8.30
2022-09-29T08:18:53.878Z,9.30
2022-09-29T08:21:20.458Z,8.32
2022-09-29T08:23:47.077Z,8.43
2022-09-29T08:26:17.109Z,9.48
2022-09-29T08:28:45.076Z,8.63
2022-09-29T08:31:21.424Z,8.98
2022-09-29T08:33:52.610Z,8.85
2022-09-29T08:36:20.087Z,9.63
2022-09-29T08:38:49.054Z,9.25
2022-09-29T08:41:35.034Z,7.97
2022-09-29T08:44:37.036Z,8.68
2022-09-29T08:47:42.141Z,8.50
2022-09-29T08:50:53.901Z,8.70
2022-09-29T08:53:28.244Z,8.52
2022-09-29T08:56:13.625Z,8.70
2022-09-29T08:58:41.335Z,8.05
2022-09-29T09:01:29.257Z,7.75
2022-09-29T09:04:04.854Z,7.95
2022-09-29T09:06:51.990Z,7.53
2022-09-29T09:09:34.208Z,8.40
2022-09-29T09:12:33.570Z,7.38
2022-09-29T09:15:21.530Z,7.65
2022-09-29T09:18:50.878Z,6.97
2022-09-29T09:21:28.081Z,6.82
2022-09-29T09:24:24.777Z,6.88
2022-09-29T09:26:52.455Z,6.68
2022-09-29T09:29:30.646Z,8.20
2022-09-29T09:32:05.291Z,7.20
2022-09-29T09:34:44.489Z,6.95
2022-09-29T09:37:20.801Z,7.07
2022-09-29T09:39:49.857Z,6.57
2022-09-29T09:42:24.295Z,6.93
2022-09-29T09:44:58.649Z,6.68
2022-09-29T09:47:42.173Z,7.85
2022-09-29T09:50:22.620Z,6.05
2022-09-29T09:52:56.154Z,5.80
2022-09-29T09:55:25.076Z,6.45
2022-09-29T09:58:09.530Z,6.53
2022-09-29T10:00:39.175Z,6.57
2022-09-29T10:03:08.085Z,6.72
2022-09-29T10:05:42.910Z,5.35
2022-09-29T10:08:29.467Z,7.30
2022-09-29T10:10:59.609Z,6.32
2022-09-29T10:13:29.034Z,6.50
2022-09-29T10:16:11.059Z,5.47
2022-09-29T10:18:47.010Z,6.65
2022-09-29T10:21:36.073Z,5.18
2022-09-29T10:24:06.167Z,5.38
2022-09-29T10:26:39.765Z,4.97
2022-09-29T10:29:38.570Z,5.07
2022-09-29T10:32:21.688Z,4.68
2022-09-29T10:34:54.814Z,4.25
2022-09-29T10:37:35.587Z,4.60
2022-09-29T10:40:22.757Z,3.10
2022-09-29T10:42:51.184Z,2.95
2022-09-29T10:45:23.317Z,3.15
2022-09-29T10:48:09.866Z,3.35
2022-09-29T10:50:39.784Z,3.70
2022-09-29T10:53:38.096Z,3.20
2022-09-29T10:56:37.060Z,3.80
2022-09-29T10:59:05.963Z,3.30
2022-09-29T11:01:43.270Z,3.90
2022-09-29T11:04:22.159Z,3.60
2022-09-29T11:06:49.892Z,4.05
2022-09-29T11:09:16.629Z,3.22
2022-09-29T11:11:49.436Z,3.80
2022-09-29T11:14:38.001Z,2.85
2022-09-29T11:17:31.129Z,2.65
2022-09-29T11:20:03.940Z,2.22
2022-09-29T11:23:06.284Z,1.75
2022-09-29T11:25:52.413Z,2.30
2022-09-29T11:28:56.434Z,2.92
2022-09-29T11:31:32.445Z,2.10
2022-09-29T11:34:26.189Z,2.08
2022-09-29T11:37:02.747Z,2.45
2022-09-29T11:39:50.620Z,2.38
2022-09-29T11:42:58.152Z,2.38
2022-09-29T11:45:36.924Z,1.95
2022-09-29T11:48:26.027Z,1.85
2022-09-29T11:51:16.496Z,2.05
2022-09-29T11:54:21.141Z,1.95
2022-09-29T11:56:58.578Z,1.80
2022-09-29T12:00:00.093Z,1.42
2022-09-29T12:02:50.769Z,1.88
2022-09-29T12:05:31.182Z,2.08
2022-09-29T12:08:00.861Z,1.70
2022-09-29T12:10:56.180Z,1.20
2022-09-29T12:13:36.487Z,1.45
2022-09-29T12:16:21.175Z,1.27
2022-09-29T12:18:56.684Z,1.17
2022-09-29T12:21:35.404Z,1.27
2022-09-29T12:24:06.437Z,1.63
2022-09-29T12:26:34.352Z,1.20
2022-09-29T12:29:32.145Z,1.58
2022-09-29T12:32:02.828Z,1.00
2022-09-29T12:34:51.215Z,0.95
2022-09-29T12:37:27.737Z,1.25
2022-09-29T12:40:16.666Z,2.15
2022-09-29T12:43:02.561Z,1.70
2022-09-29T12:45:41.645Z,1.85
2022-09-29T12:48:14.280Z,3.05
2022-09-29T12:50:49.653Z,2.92
2022-09-29T12:53:24.180Z,2.95
2022-09-29T12:56:04.345Z,3.30
2022-09-29T12:58:45.697Z,4.15
2022-09-29T13:01:27.795Z,3.90
2022-09-29T13:04:33.543Z,3.33
2022-09-29T13:07:29.937Z,4.55
2022-09-29T13:10:25.429Z,4.47
2022-09-29T13:13:10.663Z,4.25
2022-09-29T13:15:46.171Z,4.22
2022-09-29T13:18:30.462Z,4.05
2022-09-29T13:21:11.501Z,4.40
2022-09-29T13:24:01.052Z,4.15
2022-09-29T13:26:51.719Z,3.95
2022-09-29T13:29:22.622Z,3.63
2022-09-29T13:31:51.192Z,3.55
2022-09-29T13:34:38.423Z,3.40
2022-09-29T13:37:14.073Z,3.35
2022-09-29T13:39:51.034Z,3.05
2022-09-29T13:42:37.088Z,2.72
2022-09-29T13:45:15.566Z,2.40
2022-09-29T13:47:47.436Z,2.30
2022-09-29T13:50:49.336Z,2.50
2022-09-29T13:53:22.101Z,1.85
2022-09-29T13:55:54.722Z,2.33
2022-09-29T13:58:36.154Z,1.95
2022-09-29T14:01:06.223Z,1.88
2022-09-29T14:03:37.885Z,2.47
2022-09-29T14:06:41.424Z,1.70
2022-09-29T14:09:17.804Z,1.58
2022-09-29T14:11:49.640Z,1.98
2022-09-29T14:14:25.279Z,1.70
2022-09-29T14:17:06.244Z,1.85
2022-09-29T14:19:45.541Z,1.75
2022-09-29T14:22:30.548Z,1.35
2022-09-29T14:25:11.773Z,1.98
2022-09-29T14:28:09.297Z,1.85
2022-09-29T14:30:50.597Z,2.42
2022-09-29T14:33:29.326Z,1.85
2022-09-29T14:36:01.579Z,1.30
2022-09-29T14:41:02.389Z,1.85
2022-09-29T14:43:59.404Z,1.50
2022-09-29T14:46:59.833Z,1.38
2022-09-29T14:49:50.753Z,1.30
2022-09-29T14:52:49.099Z,1.20
2022-09-29T14:55:30.490Z,0.80
2022-09-29T14:58:10.362Z,1.20
2022-09-29T15:01:10.523Z,1.08
2022-09-29T15:03:51.905Z,1.25
2022-09-29T15:06:25.187Z,1.10
2022-09-29T15:09:03.266Z,1.02
2022-09-29T15:11:37.748Z,1.13
2022-09-29T15:14:22.768Z,1.13
2022-09-29T15:17:44.272Z,0.95
2022-09-29T15:20:37.461Z,1.35
2022-09-29T15:23:54.513Z,1.00
2022-09-29T15:26:26.901Z,1.00
2022-09-29T15:28:53.558Z,1.08
2022-09-29T15:31:29.097Z,0.90
2022-09-29T15:33:57.867Z,1.05
2022-09-29T15:36:26.489Z,1.25
2022-09-29T15:39:05.661Z,1.10
2022-09-29T15:41:34.090Z,1.15
2022-09-29T15:44:03.682Z,1.00
2022-09-29T15:46:40.274Z,0.70
2022-09-29T15:49:09.897Z,1.02
2022-09-29T15:51:37.473Z,1.27
2022-09-29T15:54:09.233Z,1.63
2022-09-29T15:56:55.637Z,0.73
2022-09-29T15:59:45.448Z,0.70
2022-09-29T16:02:31.576Z,1.05
2022-09-29T16:05:05.723Z,1.20
2022-09-29T16:07:36.152Z,1.25
2022-09-29T16:10:25.978Z,1.05
2022-09-29T16:13:05.966Z,0.88
2022-09-29T16:15:44.263Z,0.77
2022-09-29T16:18:23.293Z,1.25
2022-09-29T16:20:51.221Z,1.02
2022-09-29T16:23:26.991Z,0.95
2022-09-29T16:26:31.763Z,1.00
2022-09-29T16:29:09.976Z,1.15
2022-09-29T16:31:41.893Z,1.38
2022-09-29T16:34:22.501Z,1.10
2022-09-29T16:36:52.794Z,0.93
2022-09-29T16:39:22.596Z,1.13
2022-09-29T16:41:58.549Z,0.80
2022-09-29T16:44:33.073Z,1.00
2022-09-29T16:47:14.522Z,1.10
2022-09-29T16:49:50.813Z,1.10
2022-09-29T16:52:20.365Z,1.40
2022-09-29T16:54:49.828Z,1.23
2022-09-29T16:57:34.402Z,1.00
2022-09-29T17:00:07.763Z,1.23
2022-09-29T17:02:34.386Z,1.23
2022-09-29T17:05:04.938Z,1.17
2022-09-29T17:07:32.046Z,0.75
2022-09-29T17:10:01.583Z,1.15
2022-09-29T17:12:33.369Z,1.45
2022-09-29T17:15:03.850Z,1.55
2022-09-29T17:17:30.817Z,1.33
2022-09-29T17:20:01.254Z,1.50
2022-09-29T17:22:32.974Z,1.60
2022-09-29T17:25:02.483Z,1.45
2022-09-29T17:27:52.728Z,1.88
2022-09-29T17:30:25.835Z,1.90
2022-09-29T17:32:56.969Z,1.98
2022-09-29T17:35:52.961Z,2.53
2022-09-29T17:38:21.749Z,1.63
2022-09-29T17:40:49.377Z,2.80
2022-09-29T17:43:23.322Z,2.97
2022-09-29T17:45:53.206Z,2.97
2022-09-29T17:48:23.221Z,2.88
2022-09-29T17:50:56.239Z,3.05
2022-09-29T17:53:26.174Z,2.60
2022-09-29T17:55:57.711Z,2.95
2022-09-29T17:58:27.241Z,3.00
2022-09-29T18:01:00.949Z,3.28
2022-09-29T18:03:29.260Z,3.78
2022-09-29T18:05:59.879Z,4.00
2022-09-29T18:08:32.756Z,5.20
2022-09-29T18:11:01.263Z,5.93
2022-09-29T18:13:33.666Z,6.97
2022-09-29T18:18:38.027Z,5.28
2022-09-29T18:21:06.168Z,5.87
2022-09-29T18:23:35.176Z,4.55
2022-09-29T18:26:04.182Z,4.40
2022-09-29T18:28:38.714Z,5.40
2022-09-29T18:31:15.023Z,8.02
2022-09-29T18:33:46.386Z,16.65
2022-09-29T18:36:15.204Z,25.00
2022-09-29T18:38:41.848Z,22.15
2022-09-29T18:41:17.296Z,21.10
2022-09-29T18:43:54.127Z,18.23
2022-09-29T18:46:25.107Z,13.70
2022-09-29T18:48:56.245Z,9.35
2022-09-29T18:51:26.205Z,7.80
2022-09-29T18:53:52.804Z,5.68
2022-09-29T18:56:19.907Z,4.60
2022-09-29T18:58:46.678Z,5.75
2022-09-29T19:01:24.482Z,6.95
2022-09-29T19:03:54.431Z,8.57
2022-09-29T19:06:22.572Z,9.48
2022-09-29T19:08:54.741Z,11.77
2022-09-29T19:11:28.037Z,13.27
2022-09-29T19:13:56.064Z,11.15
2022-09-29T19:16:28.009Z,9.07
2022-09-29T19:18:55.606Z,7.38
2022-09-29T19:21:25.070Z,6.78
2022-09-29T19:23:51.750Z,6.28
2022-09-29T19:26:25.327Z,5.85
2022-09-29T19:28:52.016Z,6.32
2022-09-29T19:31:20.699Z,5.53
2022-09-29T19:33:50.690Z,5.53
2022-09-29T19:36:22.334Z,7.88
2022-09-29T19:38:50.273Z,10.47
2022-09-29T19:41:23.921Z,13.75
2022-09-29T19:43:53.442Z,14.05
2022-09-29T19:46:25.422Z,9.15
2022-09-29T19:48:54.327Z,8.55
2022-09-29T19:51:39.845Z,8.30
2022-09-29T19:54:13.977Z,10.10
2022-09-29T19:56:49.581Z,7.20
2022-09-29T19:59:23.029Z,7.47
2022-09-29T20:01:53.378Z,5.82
2022-09-29T20:04:28.676Z,4.57
2022-09-29T20:06:59.117Z,3.60
2022-09-29T20:09:28.588Z,4.43
2022-09-29T20:11:56.800Z,5.28
2022-09-29T20:14:24.181Z,5.20
2022-09-29T20:16:53.532Z,5.22
2022-09-29T20:19:24.033Z,5.20
2022-09-29T20:21:52.357Z,4.20
2022-09-29T20:24:23.829Z,3.83
2022-09-29T20:26:57.455Z,3.35
2022-09-29T20:29:24.490Z,3.47
2022-09-29T20:31:51.906Z,3.15
2022-09-29T20:34:18.872Z,3.38
2022-09-29T20:36:48.645Z,3.25
2022-09-29T20:39:19.765Z,2.80
2022-09-29T20:41:53.861Z,3.38
2022-09-29T20:44:25.364Z,3.47
2022-09-29T20:46:59.560Z,3.53
2022-09-29T20:49:31.562Z,3.33
2022-09-29T20:51:59.203Z,2.97
2022-09-29T20:54:28.422Z,3.35
2022-09-29T20:57:00.331Z,2.80
2022-09-29T20:59:32.262Z,2.63
2022-09-29T21:01:59.067Z,2.08
2022-09-29T21:04:26.129Z,2.95
2022-09-29T21:06:52.954Z,2.55
2022-09-29T21:09:23.937Z,2.13
2022-09-29T21:11:59.834Z,2.53
2022-09-29T21:14:29.861Z,2.55
2022-09-29T21:17:00.045Z,2.00
2022-09-29T21:19:29.166Z,2.17
2022-09-29T21:22:01.452Z,2.47
2022-09-29T21:24:28.566Z,2.33
2022-09-29T21:26:58.935Z,2.67
2022-09-29T21:29:28.157Z,3.00
2022-09-29T21:31:54.809Z,2.60
2022-09-29T21:34:21.923Z,3.17
2022-09-29T21:36:51.246Z,3.08
2022-09-29T21:39:22.424Z,3.22
2022-09-29T21:41:49.884Z,3.40
2022-09-29T21:44:19.345Z,2.65
2022-09-29T21:46:46.949Z,3.17
2022-09-29T21:49:16.006Z,3.05
2022-09-29T21:51:48.519Z,3.28
2022-09-29T21:54:22.052Z,3.25
2022-09-29T21:56:49.726Z,2.92
2022-09-29T21:59:20.529Z,2.83
2022-09-29T22:01:51.777Z,3.33
2022-09-29T22:04:19.194Z,3.00
2022-09-29T22:06:48.348Z,3.20
2022-09-29T22:09:22.582Z,2.72
2022-09-29T22:11:50.010Z,2.75
2022-09-29T22:14:17.701Z,2.97
2022-09-29T22:16:44.623Z,2.72
2022-09-29T22:19:24.866Z,2.90
2022-09-29T22:21:55.257Z,3.38
2022-09-29T22:24:23.703Z,4.20
2022-09-29T22:26:51.283Z,4.47
2022-09-29T22:29:20.590Z,4.50
2022-09-29T22:31:47.499Z,5.43
2022-09-29T22:34:18.083Z,4.65
2022-09-29T22:36:45.966Z,4.05
2022-09-29T22:39:13.804Z,4.05
2022-09-29T22:41:41.050Z,5.55
2022-09-29T22:44:11.048Z,5.13
2022-09-29T22:46:37.758Z,6.22
2022-09-29T22:49:05.103Z,6.03
2022-09-29T22:51:32.071Z,6.22
2022-09-29T22:54:01.226Z,7.13
2022-09-29T22:56:32.481Z,7.60
2022-09-29T22:59:02.225Z,7.07
2022-09-29T23:01:33.418Z,6.80
2022-09-29T23:04:03.924Z,5.57
2022-09-29T23:06:31.924Z,5.20
2022-09-29T23:08:58.551Z,4.78
2022-09-29T23:11:25.625Z,4.55
2022-09-29T23:13:53.047Z,4.70
2022-09-29T23:16:19.769Z,3.85
2022-09-29T23:18:55.960Z,4.03
2022-09-29T23:21:25.193Z,4.03
2022-09-29T23:23:57.441Z,4.32
2022-09-29T23:26:27.924Z,3.83
2022-09-29T23:28:57.126Z,3.83
2022-09-29T23:31:24.179Z,2.85
2022-09-29T23:34:00.701Z,2.97
2022-09-29T23:36:33.617Z,2.45
2022-09-29T23:39:13.677Z,2.75
2022-09-29T23:41:43.186Z,2.30
2022-09-29T23:44:11.917Z,2.88
2022-09-29T23:46:41.854Z,2.53
2022-09-29T23:49:14.914Z,2.45
2022-09-29T23:51:47.159Z,2.58
2022-09-29T23:54:18.177Z,2.72
2022-09-29T23:56:49.397Z,2.78
2022-09-29T23:59:19.555Z,2.70
